Lewisville, Arkansas
Current Conditions -  °F | °C
As of 1:53 AM on Sunday 26 Oct 2014 (Local Time) from KTXK Reporting Station
Haze Haze  
Wind Chill: 65°   Ceiling: Unl
Heat Index: 65°   Visibility: 6mi
Dew Point: 63°   Wind: 6mph
Humidity: 93%   Direction: 210°SSW
Pressure: 30.03"   Gusts: NA
Location:  33.36°N, 93.58°W
Report Text: KTXK 260653Z AUTO 21005KT 6SM BR CLR 18/17 A3003 RMK AO2 SLP164 T01830172
Loading
Personal Weather Stations






























Interactive Weather Map
Tropical Storm Tracking
New forecast layout! Learn more

10-Day Weather Forecast

Advertisements
Track Severe Weather on mobile